createdAt,value
2022-12-17T00:01:54.182Z,96929.59
2022-12-17T00:04:41.198Z,96928.71
2022-12-17T00:07:35.439Z,96924.08
2022-12-17T00:10:22.507Z,96920.61
2022-12-17T00:13:09.237Z,96918.79
2022-12-17T00:15:56.464Z,96915.89
2022-12-17T00:18:43.594Z,96921.80
2022-12-17T00:21:30.082Z,96922.27
2022-12-17T00:24:16.821Z,96928.04
2022-12-17T00:27:03.352Z,96925.74
2022-12-17T00:29:50.071Z,96921.00
2022-12-17T00:32:38.256Z,96917.55
2022-12-17T00:35:25.339Z,96916.39
2022-12-17T00:38:11.737Z,96913.47
2022-12-17T00:40:58.610Z,96909.50
2022-12-17T00:43:45.392Z,96898.65
2022-12-17T00:46:32.126Z,96891.34
2022-12-17T00:49:18.771Z,96896.90
2022-12-17T00:52:05.473Z,96893.36
2022-12-17T00:54:52.410Z,96883.23
2022-12-17T00:57:38.976Z,96880.19
2022-12-17T01:00:26.154Z,96883.73
2022-12-17T01:03:12.894Z,96882.62
2022-12-17T01:05:59.510Z,96878.85
2022-12-17T01:08:47.113Z,96890.28
2022-12-17T01:11:34.261Z,96898.94
2022-12-17T01:14:20.948Z,96895.41
2022-12-17T01:17:07.709Z,96893.75
2022-12-17T01:19:54.494Z,96895.89
2022-12-17T01:22:43.360Z,96896.95
2022-12-17T01:25:29.924Z,96891.90
2022-12-17T01:28:18.347Z,96888.91
2022-12-17T01:31:07.821Z,96894.92
2022-12-17T01:33:54.843Z,96897.21
2022-12-17T01:36:41.687Z,96889.59
2022-12-17T01:39:28.406Z,96883.95
2022-12-17T01:42:15.127Z,96875.83
2022-12-17T01:45:15.681Z,96874.98
2022-12-17T01:48:11.447Z,96881.17
2022-12-17T01:51:02.182Z,96886.07
2022-12-17T01:53:54.123Z,96889.70
2022-12-17T01:56:45.297Z,96897.52
2022-12-17T01:59:33.196Z,96908.28
2022-12-17T02:02:19.673Z,96908.51
2022-12-17T02:05:06.510Z,96903.61
2022-12-17T02:08:08.547Z,96886.48
2022-12-17T02:11:03.303Z,96876.96
2022-12-17T02:13:56.150Z,96874.30
2022-12-17T02:16:50.352Z,96877.54
2022-12-17T02:19:59.042Z,96873.30
2022-12-17T02:22:58.921Z,96870.30
2022-12-17T02:26:19.466Z,96876.62
2022-12-17T02:29:09.819Z,96875.41
2022-12-17T02:31:59.707Z,96865.73
2022-12-17T02:34:46.781Z,96865.67
2022-12-17T02:37:34.186Z,96867.67
2022-12-17T02:40:24.367Z,96862.44
2022-12-17T02:43:11.302Z,96861.09
2022-12-17T02:45:58.895Z,96859.88
2022-12-17T02:48:46.458Z,96861.04
2022-12-17T02:51:33.975Z,96864.22
2022-12-17T02:54:22.882Z,96862.71
2022-12-17T02:57:09.663Z,96853.70
2022-12-17T02:59:56.065Z,96844.14
2022-12-17T03:02:43.516Z,96836.80
2022-12-17T03:05:46.163Z,96834.13
2022-12-17T03:08:33.040Z,96832.84
2022-12-17T03:11:19.730Z,96835.77
2022-12-17T03:14:06.283Z,96838.33
2022-12-17T03:16:52.980Z,96842.55
2022-12-17T03:19:39.486Z,96846.84
2022-12-17T03:22:26.038Z,96846.56
2022-12-17T03:25:12.747Z,96837.64
2022-12-17T03:27:59.477Z,96835.88
2022-12-17T03:30:49.167Z,96837.73
2022-12-17T03:33:36.387Z,96844.13
2022-12-17T03:36:23.154Z,96836.91
2022-12-17T03:39:09.807Z,96830.52
2022-12-17T03:41:56.546Z,96831.02
2022-12-17T03:44:43.482Z,96832.54
2022-12-17T03:47:30.053Z,96830.29
2022-12-17T03:50:17.029Z,96829.39
2022-12-17T03:53:03.649Z,96829.51
2022-12-17T03:55:50.288Z,96830.98
2022-12-17T03:58:36.865Z,96825.83
2022-12-17T04:01:23.966Z,96818.20
2022-12-17T04:04:10.880Z,96808.33
2022-12-17T04:06:57.714Z,96808.73
2022-12-17T04:09:44.485Z,96803.15
2022-12-17T04:12:30.948Z,96803.81
2022-12-17T04:15:17.523Z,96808.14
2022-12-17T04:18:04.280Z,96810.31
2022-12-17T04:20:50.984Z,96808.30
2022-12-17T04:23:37.872Z,96810.94
2022-12-17T04:26:27.946Z,96814.44
2022-12-17T04:29:14.510Z,96823.18
2022-12-17T04:32:01.756Z,96832.59
2022-12-17T04:34:48.570Z,96842.50
2022-12-17T04:37:35.239Z,96847.94
2022-12-17T04:40:21.958Z,96851.08
2022-12-17T04:43:08.717Z,96856.71
2022-12-17T04:45:56.661Z,96860.22
2022-12-17T04:48:43.427Z,96863.13
2022-12-17T04:51:30.332Z,96867.02
2022-12-17T04:54:18.069Z,96869.49
2022-12-17T04:57:04.799Z,96873.61
2022-12-17T04:59:51.355Z,96878.09
2022-12-17T05:02:42.509Z,96874.84
2022-12-17T05:05:30.079Z,96874.13
2022-12-17T05:08:17.138Z,96874.04
2022-12-17T05:11:03.744Z,96873.20
2022-12-17T05:13:50.450Z,96866.15
2022-12-17T05:16:37.007Z,96863.10
2022-12-17T05:19:23.612Z,96864.96
2022-12-17T05:22:13.401Z,96864.38
2022-12-17T05:25:00.264Z,96856.71
2022-12-17T05:27:46.916Z,96850.04
2022-12-17T05:30:33.571Z,96852.81
2022-12-17T05:33:21.804Z,96864.97
2022-12-17T05:36:08.219Z,96865.96
2022-12-17T05:38:57.392Z,96861.89
2022-12-17T05:41:44.032Z,96853.35
2022-12-17T05:44:30.629Z,96849.73
2022-12-17T05:47:17.306Z,96847.19
2022-12-17T05:50:04.097Z,96842.05
2022-12-17T05:52:50.798Z,96836.88
2022-12-17T05:55:37.280Z,96834.58
2022-12-17T05:58:25.858Z,96836.04
2022-12-17T06:01:17.106Z,96835.66
2022-12-17T06:04:03.889Z,96827.16
2022-12-17T06:06:51.076Z,96832.82
2022-12-17T06:09:38.437Z,96838.11
2022-12-17T06:12:25.337Z,96846.04
2022-12-17T06:15:12.226Z,96851.55
2022-12-17T06:18:16.300Z,96856.98
2022-12-17T06:21:04.374Z,96856.08
2022-12-17T06:23:51.183Z,96847.59
2022-12-17T06:26:39.005Z,96836.26
2022-12-17T06:29:25.435Z,96826.39
2022-12-17T06:32:12.269Z,96825.06
2022-12-17T06:34:59.007Z,96822.79
2022-12-17T06:37:45.657Z,96821.38
2022-12-17T06:40:32.328Z,96830.67
2022-12-17T06:43:18.918Z,96829.08
2022-12-17T06:46:05.624Z,96827.46
2022-12-17T06:48:52.289Z,96829.38
2022-12-17T06:51:38.815Z,96829.02
2022-12-17T06:54:25.491Z,96835.96
2022-12-17T06:57:12.144Z,96842.31
2022-12-17T06:59:58.838Z,96854.55
2022-12-17T07:02:45.597Z,96858.85
2022-12-17T07:05:32.556Z,96863.48
2022-12-17T07:08:19.754Z,96866.23
2022-12-17T07:11:06.302Z,96864.73
2022-12-17T07:13:53.171Z,96865.64
2022-12-17T07:16:40.361Z,96874.70
2022-12-17T07:19:27.713Z,96886.23
2022-12-17T07:22:14.489Z,96896.30
2022-12-17T07:25:01.043Z,96901.19
2022-12-17T07:27:47.602Z,96900.98
2022-12-17T07:30:34.216Z,96899.84
2022-12-17T07:33:26.002Z,96895.05
2022-12-17T07:36:13.759Z,96884.93
2022-12-17T07:39:00.285Z,96882.17
2022-12-17T07:41:46.859Z,96887.77
2022-12-17T07:44:33.946Z,96895.27
2022-12-17T07:47:37.483Z,96871.83
2022-12-17T07:50:24.339Z,96875.45
2022-12-17T07:53:21.633Z,96899.48
2022-12-17T07:56:08.614Z,96908.34
2022-12-17T07:58:55.465Z,96913.45
2022-12-17T08:01:42.362Z,96919.21
2022-12-17T08:04:28.911Z,96930.73
2022-12-17T08:07:15.459Z,96940.69
2022-12-17T08:10:02.190Z,96949.20
2022-12-17T08:12:49.343Z,96959.19
2022-12-17T08:15:36.083Z,96962.91
2022-12-17T08:18:26.706Z,96967.38
2022-12-17T08:21:13.506Z,96979.89
2022-12-17T08:24:00.108Z,96989.56
2022-12-17T08:26:48.301Z,96994.21
2022-12-17T08:29:34.973Z,96988.71
2022-12-17T08:32:21.667Z,96986.36
2022-12-17T08:35:08.676Z,96990.43
2022-12-17T08:37:55.226Z,96999.41
2022-12-17T08:40:41.927Z,97004.16
2022-12-17T08:43:28.592Z,96998.85
2022-12-17T08:46:15.304Z,97000.18
2022-12-17T08:49:02.960Z,97005.95
2022-12-17T08:51:49.875Z,97011.19
2022-12-17T08:54:36.612Z,97015.56
2022-12-17T08:57:31.515Z,97023.70
2022-12-17T09:00:19.206Z,97021.45
2022-12-17T09:03:05.975Z,97028.59
2022-12-17T09:05:52.775Z,97034.34
2022-12-17T09:08:39.495Z,97043.75
2022-12-17T09:11:25.947Z,97049.17
2022-12-17T09:14:12.599Z,97058.33
2022-12-17T09:16:59.349Z,97059.65
2022-12-17T09:19:45.995Z,97061.23
2022-12-17T09:22:32.771Z,97065.40
2022-12-17T09:25:19.560Z,97070.80
2022-12-17T09:28:06.192Z,97065.95
2022-12-17T09:30:53.241Z,97069.41
2022-12-17T09:33:41.017Z,97072.03
2022-12-17T09:36:28.087Z,97081.59
2022-12-17T09:39:14.934Z,97082.85
2022-12-17T09:42:11.877Z,97090.73
2022-12-17T09:45:09.970Z,97100.52
2022-12-17T09:48:02.869Z,97100.56
2022-12-17T09:50:49.365Z,97099.62
2022-12-17T09:53:55.051Z,97103.85
2022-12-17T09:56:45.853Z,97107.71
2022-12-17T09:59:40.473Z,97117.83
2022-12-17T10:02:39.261Z,97118.03
2022-12-17T10:05:53.877Z,97116.55
2022-12-17T10:08:40.531Z,97116.95
2022-12-17T10:11:48.569Z,97122.02
2022-12-17T10:14:40.015Z,97121.61
2022-12-17T10:17:39.214Z,97121.45
2022-12-17T10:20:52.347Z,97122.30
2022-12-17T10:23:45.833Z,97121.96
2022-12-17T10:26:53.804Z,97120.08
2022-12-17T10:29:47.666Z,97120.11
2022-12-17T10:32:34.917Z,97122.20
2022-12-17T10:35:32.853Z,97125.52
2022-12-17T10:38:20.840Z,97126.77
2022-12-17T10:41:07.681Z,97130.16
2022-12-17T10:43:57.925Z,97132.89
2022-12-17T10:46:50.265Z,97130.04
2022-12-17T10:49:44.090Z,97127.21
2022-12-17T10:52:48.364Z,97136.86
2022-12-17T10:55:47.541Z,97145.50
2022-12-17T10:58:55.379Z,97151.61
2022-12-17T11:01:44.727Z,97154.27
2022-12-17T11:04:57.646Z,97152.86
2022-12-17T11:07:56.383Z,97152.89
2022-12-17T11:10:47.200Z,97163.23
2022-12-17T11:13:58.914Z,97169.54
2022-12-17T11:16:53.917Z,97172.52
2022-12-17T11:20:14.189Z,97174.45
2022-12-17T11:23:04.097Z,97169.22
2022-12-17T11:25:59.985Z,97172.74
2022-12-17T11:28:49.334Z,97177.70
2022-12-17T11:31:36.168Z,97180.45
2022-12-17T11:34:52.105Z,97182.69
2022-12-17T11:37:41.666Z,97192.21
2022-12-17T11:40:40.293Z,97206.29
2022-12-17T11:43:46.311Z,97217.98
2022-12-17T11:46:33.197Z,97223.30
2022-12-17T11:49:28.736Z,97228.95
2022-12-17T11:52:34.750Z,97254.02
2022-12-17T11:56:05.003Z,97269.94
2022-12-17T11:59:04.917Z,97270.36
2022-12-17T12:02:03.642Z,97286.34
2022-12-17T12:04:50.512Z,97303.73
2022-12-17T12:07:54.524Z,97315.23
2022-12-17T12:10:47.282Z,97325.09
2022-12-17T12:13:56.359Z,97330.30
2022-12-17T12:17:16.442Z,97340.40
2022-12-17T12:20:13.288Z,97332.65
2022-12-17T12:23:17.371Z,97333.21
2022-12-17T12:26:04.206Z,97351.18
2022-12-17T12:29:12.680Z,97362.20
2022-12-17T12:32:05.309Z,97370.32
2022-12-17T12:34:56.945Z,97375.23
2022-12-17T12:37:54.475Z,97387.91
2022-12-17T12:40:57.893Z,97383.19
2022-12-17T12:43:52.029Z,97406.35
2022-12-17T12:47:00.304Z,97425.28
2022-12-17T12:50:15.416Z,97434.65
2022-12-17T12:53:22.249Z,97442.56
2022-12-17T12:56:08.891Z,97452.69
2022-12-17T12:58:55.721Z,97455.48
2022-12-17T13:01:53.311Z,97458.69
2022-12-17T13:04:58.476Z,97468.93
2022-12-17T13:07:29.918Z,97474.71
2022-12-17T13:09:59.598Z,97475.52
2022-12-17T13:12:46.137Z,97480.77
2022-12-17T13:15:30.165Z,97485.01
2022-12-17T13:18:19.488Z,97490.59
2022-12-17T13:21:23.443Z,97508.45
2022-12-17T13:23:51.735Z,97518.55
2022-12-17T13:26:42.988Z,97527.05
2022-12-17T13:29:21.557Z,97535.04
2022-12-17T13:32:31.661Z,97545.95
2022-12-17T13:35:27.258Z,97553.90
2022-12-17T13:38:05.035Z,97552.35
2022-12-17T13:40:48.900Z,97556.70
2022-12-17T13:43:21.303Z,97563.42
2022-12-17T13:45:51.669Z,97571.40
2022-12-17T13:48:23.217Z,97569.70
2022-12-17T13:51:03.588Z,97576.64
2022-12-17T13:53:35.582Z,97579.91
2022-12-17T13:56:03.969Z,97585.29
2022-12-17T13:58:33.978Z,97585.83
2022-12-17T14:01:15.637Z,97592.07
2022-12-17T14:04:06.235Z,97600.71
2022-12-17T14:06:38.212Z,97604.17
2022-12-17T14:09:07.232Z,97610.23
2022-12-17T14:11:56.397Z,97617.20
2022-12-17T14:14:30.854Z,97620.48
2022-12-17T14:16:59.486Z,97625.35
2022-12-17T14:19:29.618Z,97629.52
2022-12-17T14:21:58.321Z,97634.19
2022-12-17T14:24:29.735Z,97643.02
2022-12-17T14:27:00.849Z,97644.73
2022-12-17T14:29:31.702Z,97657.36
2022-12-17T14:32:02.945Z,97672.95
2022-12-17T14:34:41.617Z,97683.48
2022-12-17T14:37:20.361Z,97694.38
2022-12-17T14:39:49.431Z,97691.93
2022-12-17T14:42:29.893Z,97701.45
2022-12-17T14:45:00.727Z,97713.20
2022-12-17T14:47:36.140Z,97717.56
2022-12-17T14:50:07.726Z,97722.42
2022-12-17T14:52:41.572Z,97732.60
2022-12-17T14:55:24.872Z,97741.56
2022-12-17T14:58:06.100Z,97740.69
2022-12-17T15:00:37.637Z,97737.71
2022-12-17T15:03:06.940Z,97735.08
2022-12-17T15:05:35.436Z,97736.43
2022-12-17T15:08:05.509Z,97738.61
2022-12-17T15:10:33.688Z,97746.89
2022-12-17T15:13:02.143Z,97748.56
2022-12-17T15:15:30.399Z,97755.70
2022-12-17T15:17:59.383Z,97765.59
2022-12-17T15:20:27.688Z,97771.95
2022-12-17T15:22:55.791Z,97770.20
2022-12-17T15:25:23.908Z,97779.82
2022-12-17T15:27:52.492Z,97786.56
2022-12-17T15:30:20.715Z,97791.82
2022-12-17T15:32:49.216Z,97794.25
2022-12-17T15:35:17.544Z,97795.30
2022-12-17T15:37:45.831Z,97792.17
2022-12-17T15:40:14.225Z,97796.48
2022-12-17T15:43:06.162Z,97813.08
2022-12-17T15:45:34.722Z,97826.09
2022-12-17T15:48:03.408Z,97830.58
2022-12-17T15:50:32.046Z,97837.98
2022-12-17T15:53:00.471Z,97843.81
2022-12-17T15:55:29.652Z,97850.98
2022-12-17T15:57:58.819Z,97852.73
2022-12-17T16:00:29.121Z,97855.89
2022-12-17T16:02:59.189Z,97860.35
2022-12-17T16:05:28.308Z,97870.74
2022-12-17T16:07:59.297Z,97881.51
2022-12-17T16:10:27.511Z,97886.13
2022-12-17T16:12:55.471Z,97886.02
2022-12-17T16:15:23.521Z,97889.80
2022-12-17T16:17:53.097Z,97890.60
2022-12-17T16:20:21.364Z,97890.80
2022-12-17T16:22:50.170Z,97896.28
2022-12-17T16:25:18.978Z,97900.98
2022-12-17T16:27:47.282Z,97897.69
2022-12-17T16:30:15.608Z,97899.13
2022-12-17T16:32:43.829Z,97908.13
2022-12-17T16:35:12.054Z,97910.92
2022-12-17T16:37:40.426Z,97914.61
2022-12-17T16:40:09.806Z,97911.16
2022-12-17T16:42:38.851Z,97921.65
2022-12-17T16:45:07.693Z,97927.30
2022-12-17T16:47:36.034Z,97929.15
2022-12-17T16:50:04.998Z,97928.92
2022-12-17T16:52:34.110Z,97936.08
2022-12-17T16:55:02.731Z,97938.67
2022-12-17T16:57:31.150Z,97942.44
2022-12-17T16:59:59.708Z,97942.86
2022-12-17T17:02:28.207Z,97949.55
2022-12-17T17:04:56.415Z,97954.97
2022-12-17T17:07:24.691Z,97955.67
2022-12-17T17:09:52.721Z,97957.74
2022-12-17T17:12:21.095Z,97960.77
2022-12-17T17:14:49.348Z,97963.34
2022-12-17T17:17:17.757Z,97967.30
2022-12-17T17:19:46.165Z,97972.33
2022-12-17T17:22:14.505Z,97971.39
2022-12-17T17:24:42.510Z,97976.16
2022-12-17T17:27:10.764Z,97976.08
2022-12-17T17:29:39.070Z,97980.09
2022-12-17T17:32:11.357Z,97981.67
2022-12-17T17:34:41.212Z,97985.45
2022-12-17T17:37:09.438Z,97989.00
2022-12-17T17:39:37.577Z,97992.11
2022-12-17T17:42:06.292Z,98000.15
2022-12-17T17:44:35.036Z,98002.64
2022-12-17T17:47:03.454Z,98006.31
2022-12-17T17:49:31.802Z,98004.77
2022-12-17T17:52:15.386Z,97998.98
2022-12-17T17:54:43.745Z,98005.20
2022-12-17T17:57:12.172Z,98008.45
2022-12-17T17:59:40.392Z,98011.73
2022-12-17T18:02:11.252Z,98014.30
2022-12-17T18:04:40.221Z,98019.29
2022-12-17T18:07:24.778Z,98026.27
2022-12-17T18:09:54.548Z,98033.46
2022-12-17T18:12:41.493Z,98044.17
2022-12-17T18:15:15.209Z,98046.61
2022-12-17T18:17:46.939Z,98044.23
2022-12-17T18:20:16.572Z,98049.48
2022-12-17T18:22:46.760Z,98054.59
2022-12-17T18:25:16.586Z,98056.16
2022-12-17T18:27:45.561Z,98061.73
2022-12-17T18:30:16.419Z,98061.79
2022-12-17T18:32:45.521Z,98072.70
2022-12-17T18:35:13.596Z,98081.05
2022-12-17T18:37:42.126Z,98089.41
2022-12-17T18:40:10.948Z,98100.08
2022-12-17T18:42:57.797Z,98110.21
2022-12-17T18:45:26.224Z,98117.84
2022-12-17T18:47:54.627Z,98128.45
2022-12-17T18:50:22.822Z,98129.56
2022-12-17T18:52:51.082Z,98133.23
2022-12-17T18:55:19.052Z,98140.12
2022-12-17T18:57:47.420Z,98147.73
2022-12-17T19:00:15.653Z,98151.98
2022-12-17T19:02:44.683Z,98153.49
2022-12-17T19:05:13.090Z,98162.03
2022-12-17T19:07:41.320Z,98171.02
2022-12-17T19:10:09.935Z,98179.63
2022-12-17T19:12:38.029Z,98178.65
2022-12-17T19:15:06.529Z,98181.16
2022-12-17T19:17:34.800Z,98184.38
2022-12-17T19:20:02.919Z,98192.48
2022-12-17T19:22:30.993Z,98195.09
2022-12-17T19:24:59.018Z,98195.66
2022-12-17T19:27:27.355Z,98199.61
2022-12-17T19:29:57.188Z,98197.41
2022-12-17T19:32:25.906Z,98203.52
2022-12-17T19:34:54.332Z,98196.58
2022-12-17T19:37:22.546Z,98208.52
2022-12-17T19:39:50.811Z,98214.64
2022-12-17T19:42:25.112Z,98223.10
2022-12-17T19:44:55.197Z,98225.63
2022-12-17T19:47:24.213Z,98236.09
2022-12-17T19:49:52.321Z,98239.64
2022-12-17T19:52:20.659Z,98241.63
2022-12-17T19:54:49.929Z,98243.34
2022-12-17T19:57:18.785Z,98252.73
2022-12-17T19:59:47.296Z,98251.24
2022-12-17T20:02:17.438Z,98253.25
2022-12-17T20:04:46.124Z,98252.64
2022-12-17T20:07:14.331Z,98261.19
2022-12-17T20:09:44.797Z,98257.73
2022-12-17T20:12:13.429Z,98262.55
2022-12-17T20:14:41.620Z,98269.17
2022-12-17T20:17:10.021Z,98273.39
2022-12-17T20:19:38.764Z,98275.48
2022-12-17T20:22:07.173Z,98281.41
2022-12-17T20:24:37.515Z,98281.93
2022-12-17T20:27:06.526Z,98278.59
2022-12-17T20:29:34.700Z,98279.23
2022-12-17T20:32:03.223Z,98281.39
2022-12-17T20:34:31.979Z,98289.08
2022-12-17T20:37:00.001Z,98287.02
2022-12-17T20:39:28.606Z,98295.11
2022-12-17T20:41:57.522Z,98301.35
2022-12-17T20:44:26.338Z,98302.23
2022-12-17T20:46:54.740Z,98301.52
2022-12-17T20:49:22.979Z,98312.84
2022-12-17T20:51:51.000Z,98325.42
2022-12-17T20:54:19.116Z,98325.27
2022-12-17T20:56:47.264Z,98332.95
2022-12-17T20:59:17.255Z,98341.38
2022-12-17T21:01:51.490Z,98352.19
2022-12-17T21:04:21.224Z,98357.77
2022-12-17T21:06:49.226Z,98363.44
2022-12-17T21:09:20.238Z,98372.52
2022-12-17T21:11:49.077Z,98376.13
2022-12-17T21:14:18.703Z,98375.73
2022-12-17T21:16:47.849Z,98381.78
2022-12-17T21:19:18.909Z,98394.52
2022-12-17T21:21:47.216Z,98394.13
2022-12-17T21:24:15.992Z,98396.80
2022-12-17T21:26:47.345Z,98407.54
2022-12-17T21:29:16.146Z,98422.77
2022-12-17T21:31:50.090Z,98420.11
2022-12-17T21:34:21.965Z,98415.50
2022-12-17T21:36:50.757Z,98413.76
2022-12-17T21:39:19.784Z,98413.55
2022-12-17T21:42:08.157Z,98414.16
2022-12-17T21:44:36.487Z,98418.92
2022-12-17T21:47:04.796Z,98418.02
2022-12-17T21:49:32.973Z,98422.20
2022-12-17T21:52:02.351Z,98425.63
2022-12-17T21:54:30.328Z,98432.63
2022-12-17T21:56:58.374Z,98434.92
2022-12-17T21:59:26.757Z,98436.09
2022-12-17T22:01:57.688Z,98437.17
2022-12-17T22:04:26.614Z,98434.73
2022-12-17T22:07:00.242Z,98439.27
2022-12-17T22:10:04.113Z,98450.17
2022-12-17T22:12:49.745Z,98459.05
2022-12-17T22:15:18.291Z,98458.48
2022-12-17T22:17:47.109Z,98461.17
2022-12-17T22:20:18.808Z,98468.38
2022-12-17T22:22:47.359Z,98468.35
2022-12-17T22:25:16.353Z,98467.40
2022-12-17T22:27:44.579Z,98470.30
2022-12-17T22:30:34.616Z,98475.63
2022-12-17T22:33:05.670Z,98486.52
2022-12-17T22:38:45.001Z,98499.23
2022-12-17T22:41:13.060Z,98501.48
2022-12-17T22:44:34.290Z,98506.64
2022-12-17T22:44:52.096Z,98509.77
2022-12-17T22:47:21.550Z,98507.73
2022-12-17T22:49:49.710Z,98509.95
2022-12-17T22:52:18.801Z,98515.69
2022-12-17T22:54:48.459Z,98523.58
2022-12-17T22:57:35.942Z,98527.69
2022-12-17T23:00:20.919Z,98530.61
2022-12-17T23:02:52.832Z,98540.29
2022-12-17T23:05:26.058Z,98540.23
2022-12-17T23:07:55.247Z,98537.02
2022-12-17T23:10:25.050Z,98540.15
2022-12-17T23:12:55.218Z,98540.23
2022-12-17T23:15:36.682Z,98545.65
2022-12-17T23:18:07.484Z,98551.65
2022-12-17T23:20:37.114Z,98555.17
2022-12-17T23:23:05.272Z,98561.92
2022-12-17T23:25:33.529Z,98564.60
2022-12-17T23:28:01.670Z,98563.30
2022-12-17T23:30:30.144Z,98565.45
2022-12-17T23:32:58.171Z,98569.04
2022-12-17T23:35:26.293Z,98572.14
2022-12-17T23:37:55.350Z,98578.86
2022-12-17T23:40:23.776Z,98583.33
2022-12-17T23:42:51.845Z,98585.42
2022-12-17T23:45:19.979Z,98585.64
2022-12-17T23:47:48.038Z,98593.48
2022-12-17T23:50:16.190Z,98595.41
2022-12-17T23:52:44.385Z,98603.98
2022-12-17T23:55:12.350Z,98605.06
2022-12-17T23:57:40.468Z,98603.67
